createdAt,value
2022-11-14T00:00:10.060Z,95.85
2022-11-14T00:01:11.078Z,95.65
2022-11-14T00:02:07.669Z,95.80
2022-11-14T00:03:05.377Z,95.59
2022-11-14T00:04:01.878Z,95.53
2022-11-14T00:04:58.337Z,94.75
2022-11-14T00:05:54.812Z,95.32
2022-11-14T00:06:51.249Z,95.58
2022-11-14T00:07:47.749Z,95.30
2022-11-14T00:08:44.675Z,95.77
2022-11-14T00:09:43.028Z,94.88
2022-11-14T00:10:39.453Z,95.06
2022-11-14T00:11:35.916Z,95.07
2022-11-14T00:12:32.546Z,94.83
2022-11-14T00:13:29.175Z,95.56
2022-11-14T00:14:25.643Z,95.68
2022-11-14T00:15:22.115Z,95.92
2022-11-14T00:16:18.585Z,95.91
2022-11-14T00:17:15.015Z,95.75
2022-11-14T00:18:11.607Z,95.82
2022-11-14T00:19:08.110Z,96.40
2022-11-14T00:20:05.904Z,97.10
2022-11-14T00:21:02.402Z,96.85
2022-11-14T00:22:00.316Z,96.41
2022-11-14T00:22:57.399Z,97.02
2022-11-14T00:23:53.981Z,96.92
2022-11-14T00:24:50.402Z,97.30
2022-11-14T00:25:47.175Z,97.88
2022-11-14T00:26:43.692Z,98.03
2022-11-14T00:27:40.109Z,98.35
2022-11-14T00:28:36.551Z,98.58
2022-11-14T00:29:33.002Z,98.63
2022-11-14T00:30:29.467Z,98.01
2022-11-14T00:31:25.940Z,98.31
2022-11-14T00:32:22.639Z,98.78
2022-11-14T00:33:20.702Z,98.09
2022-11-14T00:34:17.448Z,99.12
2022-11-14T00:35:13.877Z,98.57
2022-11-14T00:36:10.313Z,98.98
2022-11-14T00:37:06.925Z,98.96
2022-11-14T00:38:03.416Z,99.43
2022-11-14T00:38:59.876Z,99.16
2022-11-14T00:39:56.319Z,99.25
2022-11-14T00:40:52.785Z,98.90
2022-11-14T00:41:49.231Z,98.95
2022-11-14T00:42:45.694Z,98.95
2022-11-14T00:43:42.148Z,98.70
2022-11-14T00:44:38.624Z,98.06
2022-11-14T00:45:35.046Z,98.27
2022-11-14T00:46:31.485Z,97.45
2022-11-14T00:47:30.755Z,97.58
2022-11-14T00:48:27.542Z,96.85
2022-11-14T00:49:24.283Z,96.64
2022-11-14T00:50:20.745Z,97.24
2022-11-14T00:51:17.230Z,96.99
2022-11-14T00:52:13.675Z,96.73
2022-11-14T00:53:10.315Z,96.80
2022-11-14T00:54:06.833Z,96.93
2022-11-14T00:55:03.576Z,96.31
2022-11-14T00:56:00.043Z,97.46
2022-11-14T00:56:56.489Z,97.43
2022-11-14T00:57:52.973Z,97.90
2022-11-14T00:58:49.566Z,98.19
2022-11-14T00:59:46.042Z,98.09
2022-11-14T01:00:42.576Z,97.88
2022-11-14T01:01:39.052Z,98.65
2022-11-14T01:02:35.503Z,98.00
2022-11-14T01:03:31.948Z,98.40
2022-11-14T01:04:28.462Z,98.78
2022-11-14T01:05:25.680Z,99.17
2022-11-14T01:06:22.247Z,98.75
2022-11-14T01:07:18.773Z,98.71
2022-11-14T01:08:16.312Z,98.81
2022-11-14T01:09:12.864Z,98.22
2022-11-14T01:10:09.752Z,98.50
2022-11-14T01:11:11.841Z,97.90
2022-11-14T01:12:08.283Z,98.76
2022-11-14T01:13:04.716Z,98.72
2022-11-14T01:14:01.181Z,98.79
2022-11-14T01:14:57.638Z,98.71
2022-11-14T01:15:55.109Z,98.31
2022-11-14T01:16:51.551Z,98.22
2022-11-14T01:17:48.014Z,97.77
2022-11-14T01:18:44.517Z,98.14
2022-11-14T01:19:40.989Z,97.74
2022-11-14T01:20:41.203Z,97.81
2022-11-14T01:21:37.747Z,97.36
2022-11-14T01:22:34.274Z,97.97
2022-11-14T01:23:30.869Z,97.19
2022-11-14T01:24:27.967Z,97.27
2022-11-14T01:25:24.435Z,97.22
2022-11-14T01:26:20.921Z,96.82
2022-11-14T01:27:17.474Z,96.57
2022-11-14T01:28:16.427Z,96.74
2022-11-14T01:29:12.879Z,96.76
2022-11-14T01:30:09.869Z,96.38
2022-11-14T01:31:09.357Z,96.54
2022-11-14T01:32:06.475Z,97.11
2022-11-14T01:33:03.736Z,96.96
2022-11-14T01:34:00.176Z,96.97
2022-11-14T01:34:56.652Z,96.35
2022-11-14T01:35:53.092Z,96.56
2022-11-14T01:36:49.572Z,96.38
2022-11-14T01:37:46.128Z,96.41
2022-11-14T01:38:42.571Z,96.24
2022-11-14T01:39:39.020Z,96.25
2022-11-14T01:40:40.869Z,96.10
2022-11-14T01:41:37.319Z,96.39
2022-11-14T01:42:33.816Z,96.33
2022-11-14T01:43:31.543Z,96.01
2022-11-14T01:44:57.259Z,95.41
2022-11-14T01:46:03.006Z,95.76
2022-11-14T01:46:59.531Z,95.58
2022-11-14T01:47:56.014Z,96.50
2022-11-14T01:48:54.117Z,96.24
2022-11-14T01:49:53.780Z,96.82
2022-11-14T01:50:53.673Z,96.51
2022-11-14T01:51:51.890Z,96.10
2022-11-14T01:52:48.407Z,95.64
2022-11-14T01:53:45.957Z,95.19
2022-11-14T01:54:45.768Z,95.20
2022-11-14T01:55:42.240Z,94.71
2022-11-14T01:56:42.002Z,94.19
2022-11-14T01:57:42.052Z,94.94
2022-11-14T01:58:41.839Z,95.05
2022-11-14T01:59:39.912Z,95.42
2022-11-14T02:00:36.499Z,95.15
2022-11-14T02:01:35.810Z,95.05
2022-11-14T02:02:32.415Z,95.45
2022-11-14T02:03:29.012Z,95.78
2022-11-14T02:04:27.418Z,95.42
2022-11-14T02:05:24.063Z,95.88
2022-11-14T02:06:21.629Z,96.12
2022-11-14T02:07:18.788Z,96.64
2022-11-14T02:08:15.877Z,96.70
2022-11-14T02:09:12.445Z,97.34
2022-11-14T02:10:11.264Z,97.82
2022-11-14T02:11:10.092Z,98.31
2022-11-14T02:12:08.739Z,97.92
2022-11-14T02:13:05.475Z,98.11
2022-11-14T02:14:02.090Z,97.74
2022-11-14T02:14:59.220Z,97.79
2022-11-14T02:15:55.970Z,97.32
2022-11-14T02:17:22.256Z,97.90
2022-11-14T02:18:08.963Z,97.68
2022-11-14T02:19:05.719Z,97.78
2022-11-14T02:20:05.754Z,97.91
2022-11-14T02:21:02.309Z,97.72
2022-11-14T02:21:58.754Z,97.83
2022-11-14T02:22:55.284Z,97.78
2022-11-14T02:23:51.797Z,98.21
2022-11-14T02:24:48.257Z,97.96
2022-11-14T02:25:44.714Z,97.73
2022-11-14T02:26:41.711Z,98.01
2022-11-14T02:27:39.262Z,97.79
2022-11-14T02:28:35.755Z,97.47
2022-11-14T02:29:33.274Z,97.50
2022-11-14T02:30:29.719Z,97.78
2022-11-14T02:31:26.158Z,97.11
2022-11-14T02:32:22.650Z,97.18
2022-11-14T02:33:19.101Z,97.53
2022-11-14T02:34:19.957Z,97.44
2022-11-14T02:35:16.563Z,97.42
2022-11-14T02:36:12.998Z,98.11
2022-11-14T02:37:09.663Z,98.14
2022-11-14T02:38:06.435Z,98.29
2022-11-14T02:39:02.950Z,98.31
2022-11-14T02:39:59.440Z,98.25
2022-11-14T02:40:55.888Z,98.59
2022-11-14T02:41:52.335Z,97.99
2022-11-14T02:42:48.988Z,98.40
2022-11-14T02:43:45.424Z,97.97
2022-11-14T02:44:41.938Z,97.91
2022-11-14T02:45:38.507Z,98.61
2022-11-14T02:46:35.087Z,98.64
2022-11-14T02:47:31.529Z,99.17
2022-11-14T02:48:28.219Z,98.42
2022-11-14T02:49:24.999Z,98.34
2022-11-14T02:50:21.505Z,98.55
2022-11-14T02:51:17.972Z,98.96
2022-11-14T02:52:14.393Z,98.99
2022-11-14T02:53:10.865Z,99.58
2022-11-14T02:54:07.497Z,99.26
2022-11-14T02:55:04.651Z,99.20
2022-11-14T02:56:01.373Z,100.00
2022-11-14T02:56:57.795Z,99.46
2022-11-14T02:57:54.349Z,99.61
2022-11-14T02:58:50.810Z,99.90
2022-11-14T02:59:47.291Z,99.81
2022-11-14T03:01:05.932Z,99.35
2022-11-14T03:02:00.282Z,100.00
2022-11-14T03:02:56.756Z,100.00
2022-11-14T03:03:53.211Z,99.91
2022-11-14T03:04:49.923Z,100.00
2022-11-14T03:05:46.359Z,100.00
2022-11-14T03:06:42.830Z,100.00
2022-11-14T03:07:39.283Z,100.00
2022-11-14T03:08:35.724Z,100.00
2022-11-14T03:09:32.260Z,100.00
2022-11-14T03:10:28.691Z,100.00
2022-11-14T03:11:25.135Z,100.00
2022-11-14T03:12:21.677Z,100.00
2022-11-14T03:13:18.310Z,100.00
2022-11-14T03:14:14.969Z,100.00
2022-11-14T03:15:11.487Z,100.00
2022-11-14T03:16:09.320Z,100.00
2022-11-14T03:17:05.776Z,100.00
2022-11-14T03:18:02.440Z,100.00
2022-11-14T03:18:59.030Z,100.00
2022-11-14T03:19:55.454Z,100.00
2022-11-14T03:20:51.931Z,99.58
2022-11-14T03:21:48.401Z,99.44
2022-11-14T03:22:44.883Z,99.92
2022-11-14T03:23:41.809Z,99.75
2022-11-14T03:24:38.248Z,99.60
2022-11-14T03:25:34.717Z,99.68
2022-11-14T03:26:31.203Z,99.60
2022-11-14T03:27:27.928Z,99.54
2022-11-14T03:28:24.400Z,99.07
2022-11-14T03:29:21.039Z,98.47
2022-11-14T03:30:17.644Z,98.78
2022-11-14T03:31:14.540Z,98.73
2022-11-14T03:32:10.987Z,98.40
2022-11-14T03:33:07.408Z,98.49
2022-11-14T03:34:03.937Z,98.12
2022-11-14T03:35:00.439Z,98.38
2022-11-14T03:35:57.021Z,98.46
2022-11-14T03:36:53.524Z,98.19
2022-11-14T03:37:53.835Z,97.96
2022-11-14T03:38:52.652Z,98.90
2022-11-14T03:39:49.176Z,98.55
2022-11-14T03:40:45.618Z,98.61
2022-11-14T03:41:42.069Z,98.36
2022-11-14T03:42:38.513Z,98.47
2022-11-14T03:43:35.154Z,99.14
2022-11-14T03:44:31.582Z,98.69
2022-11-14T03:45:28.374Z,99.11
2022-11-14T03:46:24.810Z,98.71
2022-11-14T03:47:21.258Z,99.39
2022-11-14T03:48:18.110Z,98.86
2022-11-14T03:49:14.551Z,99.27
2022-11-14T03:50:11.000Z,99.36
2022-11-14T03:51:07.455Z,99.09
2022-11-14T03:52:03.967Z,99.17
2022-11-14T03:53:00.435Z,98.99
2022-11-14T03:53:56.917Z,98.89
2022-11-14T03:54:53.386Z,98.99
2022-11-14T03:55:50.120Z,98.58
2022-11-14T03:56:46.584Z,98.46
2022-11-14T03:57:43.022Z,98.67
2022-11-14T03:58:39.528Z,97.80
2022-11-14T03:59:35.985Z,97.84
2022-11-14T04:00:32.491Z,97.91
2022-11-14T04:01:29.418Z,96.79
2022-11-14T04:02:25.914Z,97.42
2022-11-14T04:03:23.161Z,96.83
2022-11-14T04:04:19.716Z,96.17
2022-11-14T04:05:16.407Z,96.01
2022-11-14T04:06:12.845Z,95.73
2022-11-14T04:07:09.416Z,95.52
2022-11-14T04:08:06.663Z,96.40
2022-11-14T04:09:03.155Z,95.99
2022-11-14T04:09:59.628Z,96.17
2022-11-14T04:10:56.099Z,96.18
2022-11-14T04:11:52.535Z,96.51
2022-11-14T04:12:49.903Z,95.82
2022-11-14T04:13:46.356Z,96.08
2022-11-14T04:14:42.835Z,96.33
2022-11-14T04:15:39.272Z,96.45
2022-11-14T04:16:35.734Z,95.97
2022-11-14T04:17:37.054Z,95.63
2022-11-14T04:18:36.021Z,95.61
2022-11-14T04:19:32.462Z,95.18
2022-11-14T04:20:28.973Z,95.18
2022-11-14T04:21:25.455Z,94.39
2022-11-14T04:22:22.023Z,94.47
2022-11-14T04:23:19.007Z,93.86
2022-11-14T04:24:15.436Z,93.51
2022-11-14T04:25:11.864Z,93.32
2022-11-14T04:26:08.331Z,93.18
2022-11-14T04:27:04.776Z,93.39
2022-11-14T04:28:01.207Z,93.68
2022-11-14T04:28:57.734Z,94.32
2022-11-14T04:29:54.177Z,93.91
2022-11-14T04:30:50.615Z,94.23
2022-11-14T04:31:47.056Z,94.56
2022-11-14T04:32:45.085Z,93.61
2022-11-14T04:33:41.599Z,93.74
2022-11-14T04:34:38.052Z,93.85
2022-11-14T04:35:34.501Z,93.96
2022-11-14T04:36:31.011Z,93.98
2022-11-14T04:37:28.042Z,93.40
2022-11-14T04:38:24.663Z,93.29
2022-11-14T04:39:21.091Z,92.67
2022-11-14T04:40:17.567Z,92.44
2022-11-14T04:41:14.074Z,93.02
2022-11-14T04:42:10.647Z,92.72
2022-11-14T04:43:07.132Z,92.68
2022-11-14T04:44:03.557Z,92.87
2022-11-14T04:45:00.069Z,92.48
2022-11-14T04:45:56.634Z,92.32
2022-11-14T04:46:53.214Z,92.97
2022-11-14T04:47:49.863Z,93.14
2022-11-14T04:48:46.331Z,92.90
2022-11-14T04:49:42.787Z,93.03
2022-11-14T04:50:39.292Z,93.47
2022-11-14T04:51:35.822Z,93.63
2022-11-14T04:52:32.267Z,94.39
2022-11-14T04:53:28.730Z,94.58
2022-11-14T04:54:25.158Z,94.70
2022-11-14T04:55:21.751Z,94.95
2022-11-14T04:56:18.235Z,94.71
2022-11-14T04:57:14.752Z,94.50
2022-11-14T04:58:11.218Z,94.34
2022-11-14T04:59:07.981Z,94.41
2022-11-14T05:00:04.744Z,94.18
2022-11-14T05:01:07.098Z,93.97
2022-11-14T05:02:03.617Z,93.94
2022-11-14T05:03:00.304Z,93.43
2022-11-14T05:03:56.824Z,93.54
2022-11-14T05:04:53.270Z,93.95
2022-11-14T05:05:50.062Z,93.61
2022-11-14T05:06:46.674Z,93.06
2022-11-14T05:07:43.147Z,93.12
2022-11-14T05:08:39.601Z,93.31
2022-11-14T05:09:36.862Z,92.78
2022-11-14T05:10:33.396Z,92.93
2022-11-14T05:11:32.935Z,93.01
2022-11-14T05:12:29.360Z,93.58
2022-11-14T05:13:25.849Z,94.17
2022-11-14T05:14:22.291Z,94.50
2022-11-14T05:15:18.720Z,94.76
2022-11-14T05:16:15.302Z,94.95
2022-11-14T05:17:11.739Z,95.24
2022-11-14T05:18:08.207Z,95.50
2022-11-14T05:19:04.713Z,95.32
2022-11-14T05:20:01.173Z,96.33
2022-11-14T05:20:58.384Z,96.01
2022-11-14T05:21:54.840Z,96.52
2022-11-14T05:22:55.257Z,96.40
2022-11-14T05:23:51.710Z,96.66
2022-11-14T05:24:48.192Z,96.61
2022-11-14T05:25:44.680Z,96.77
2022-11-14T05:26:41.127Z,96.03
2022-11-14T05:27:37.595Z,96.08
2022-11-14T05:28:34.130Z,96.53
2022-11-14T05:29:30.745Z,96.25
2022-11-14T05:30:27.219Z,96.06
2022-11-14T05:31:23.655Z,95.92
2022-11-14T05:32:20.121Z,95.03
2022-11-14T05:33:16.565Z,95.07
2022-11-14T05:34:13.012Z,94.83
2022-11-14T05:35:09.476Z,94.40
2022-11-14T05:36:07.002Z,93.63
2022-11-14T05:37:04.092Z,93.17
2022-11-14T05:38:01.841Z,93.22
2022-11-14T05:38:58.388Z,93.06
2022-11-14T05:39:54.854Z,92.26
2022-11-14T05:40:51.289Z,92.11
2022-11-14T05:41:47.728Z,91.99
2022-11-14T05:42:44.249Z,91.40
2022-11-14T05:43:41.060Z,91.39
2022-11-14T05:44:37.474Z,90.09
2022-11-14T05:45:33.927Z,90.34
2022-11-14T05:46:30.373Z,89.98
2022-11-14T05:47:26.802Z,90.30
2022-11-14T05:48:23.314Z,90.22
2022-11-14T05:49:22.086Z,90.57
2022-11-14T05:50:18.779Z,90.59
2022-11-14T05:51:15.306Z,90.82
2022-11-14T05:52:11.859Z,90.45
2022-11-14T05:53:08.428Z,91.01
2022-11-14T05:54:05.033Z,90.71
2022-11-14T05:55:01.505Z,90.74
2022-11-14T05:56:04.760Z,90.45
2022-11-14T05:57:01.233Z,90.91
2022-11-14T05:57:58.607Z,91.03
2022-11-14T05:58:55.032Z,91.99
2022-11-14T05:59:51.468Z,92.07
2022-11-14T06:00:53.619Z,91.74
2022-11-14T06:01:50.786Z,91.30
2022-11-14T06:02:47.289Z,91.02
2022-11-14T06:03:45.059Z,90.67
2022-11-14T06:04:41.525Z,91.24
2022-11-14T06:05:37.997Z,91.43
2022-11-14T06:06:34.472Z,91.22
2022-11-14T06:07:31.072Z,91.54
2022-11-14T06:08:28.567Z,91.67
2022-11-14T06:09:25.355Z,91.90
2022-11-14T06:10:21.819Z,91.67
2022-11-14T06:11:19.553Z,91.82
2022-11-14T06:12:16.015Z,92.01
2022-11-14T06:13:12.516Z,92.05
2022-11-14T06:14:11.012Z,92.28
2022-11-14T06:15:07.983Z,91.40
2022-11-14T06:16:09.357Z,91.44
2022-11-14T06:17:05.791Z,91.96
2022-11-14T06:18:02.298Z,91.73
2022-11-14T06:18:58.789Z,91.16
2022-11-14T06:19:55.249Z,91.47
2022-11-14T06:20:51.728Z,91.29
2022-11-14T06:21:48.207Z,91.63
2022-11-14T06:22:44.695Z,91.13
2022-11-14T06:23:41.420Z,91.68
2022-11-14T06:24:37.977Z,92.24
2022-11-14T06:25:34.465Z,91.41
2022-11-14T06:26:31.830Z,91.45
2022-11-14T06:27:28.289Z,91.54
2022-11-14T06:28:24.718Z,91.34
2022-11-14T06:29:21.219Z,91.37
2022-11-14T06:30:17.749Z,92.21
2022-11-14T06:31:14.231Z,91.70
2022-11-14T06:32:10.698Z,91.86
2022-11-14T06:33:07.150Z,91.72
2022-11-14T06:34:04.789Z,91.47
2022-11-14T06:35:01.398Z,91.71
2022-11-14T06:35:59.362Z,90.95
2022-11-14T06:36:55.871Z,91.50
2022-11-14T06:37:52.368Z,90.89
2022-11-14T06:38:49.013Z,91.16
2022-11-14T06:39:45.469Z,91.46
2022-11-14T06:40:41.990Z,91.54
2022-11-14T06:41:38.472Z,91.95
2022-11-14T06:42:34.934Z,91.29
2022-11-14T06:43:35.218Z,91.34
2022-11-14T06:44:31.690Z,91.52
2022-11-14T06:45:28.186Z,90.61
2022-11-14T06:46:24.748Z,90.70
2022-11-14T06:47:21.196Z,90.28
2022-11-14T06:48:17.639Z,90.20
2022-11-14T06:49:14.080Z,89.52
2022-11-14T06:50:10.599Z,89.47
2022-11-14T06:51:07.139Z,88.97
2022-11-14T06:52:03.659Z,89.84
2022-11-14T06:53:00.121Z,88.43
2022-11-14T06:53:57.480Z,88.46
2022-11-14T06:54:53.928Z,88.37
2022-11-14T06:55:56.578Z,89.25
2022-11-14T06:56:53.075Z,89.35
2022-11-14T06:57:55.567Z,90.22
2022-11-14T06:58:52.127Z,89.50
2022-11-14T06:59:48.570Z,89.70
2022-11-14T07:00:45.123Z,89.51
2022-11-14T07:01:41.671Z,89.76
2022-11-14T07:02:38.140Z,89.79
2022-11-14T07:03:34.978Z,89.94
2022-11-14T07:04:31.468Z,89.87
2022-11-14T07:05:27.919Z,89.77
2022-11-14T07:06:25.830Z,89.96
2022-11-14T07:07:22.312Z,90.31
2022-11-14T07:08:30.237Z,90.44
2022-11-14T07:09:26.847Z,89.33
2022-11-14T07:10:23.280Z,90.00
2022-11-14T07:11:24.230Z,90.27
2022-11-14T07:12:20.698Z,90.37
2022-11-14T07:13:17.136Z,91.07
2022-11-14T07:14:13.766Z,90.21
2022-11-14T07:15:10.461Z,89.84
2022-11-14T07:16:07.120Z,89.29
2022-11-14T07:17:03.618Z,89.45
2022-11-14T07:18:00.065Z,88.91
2022-11-14T07:18:59.587Z,88.58
2022-11-14T07:19:56.036Z,88.18
2022-11-14T07:21:03.340Z,87.56
2022-11-14T07:21:59.890Z,88.15
2022-11-14T07:22:56.344Z,88.01
2022-11-14T07:23:52.829Z,88.87
2022-11-14T07:24:49.327Z,88.67
2022-11-14T07:25:45.780Z,89.17
2022-11-14T07:26:42.289Z,88.95
2022-11-14T07:27:38.780Z,87.69
2022-11-14T07:28:36.483Z,87.72
2022-11-14T07:29:32.942Z,88.27
2022-11-14T07:30:29.559Z,88.02
2022-11-14T07:31:26.054Z,88.36
2022-11-14T07:32:22.496Z,88.09
2022-11-14T07:33:18.972Z,86.81
2022-11-14T07:34:15.421Z,86.23
2022-11-14T07:35:11.898Z,86.63
2022-11-14T07:36:08.995Z,86.03
2022-11-14T07:37:05.521Z,86.34
2022-11-14T07:38:03.106Z,86.51
2022-11-14T07:38:59.612Z,86.60
2022-11-14T07:39:56.050Z,86.71
2022-11-14T07:41:00.105Z,86.32
2022-11-14T07:41:56.811Z,86.38
2022-11-14T07:42:57.009Z,86.31
2022-11-14T07:43:53.530Z,87.06
2022-11-14T07:44:49.958Z,87.71
2022-11-14T07:45:46.433Z,87.49
2022-11-14T07:46:42.890Z,87.40
2022-11-14T07:47:39.315Z,87.87
2022-11-14T07:48:35.895Z,88.17
2022-11-14T07:49:32.363Z,87.52
2022-11-14T07:50:30.247Z,87.65
2022-11-14T07:51:26.720Z,88.31
2022-11-14T07:52:23.188Z,88.11
2022-11-14T07:53:19.683Z,87.58
2022-11-14T07:54:16.125Z,87.35
2022-11-14T07:55:12.921Z,87.24
2022-11-14T07:56:09.933Z,87.14
2022-11-14T07:57:06.388Z,87.26
2022-11-14T07:58:02.981Z,87.42
2022-11-14T07:58:59.479Z,86.40
2022-11-14T07:59:55.941Z,86.10
2022-11-14T08:00:52.439Z,86.03
2022-11-14T08:01:48.911Z,87.04
2022-11-14T08:02:45.838Z,87.41
2022-11-14T08:03:46.012Z,87.63
2022-11-14T08:04:42.950Z,87.52
2022-11-14T08:05:39.415Z,86.85
2022-11-14T08:06:35.862Z,87.36
2022-11-14T08:07:32.412Z,87.43
2022-11-14T08:08:29.177Z,86.62
2022-11-14T08:09:25.864Z,85.24
2022-11-14T08:10:22.321Z,84.85
2022-11-14T08:11:38.722Z,84.72
2022-11-14T08:12:35.185Z,85.48
2022-11-14T08:13:33.598Z,86.16
2022-11-14T08:14:30.439Z,84.89
2022-11-14T08:15:27.451Z,83.89
2022-11-14T08:16:23.895Z,84.58
2022-11-14T08:17:21.024Z,85.44
2022-11-14T08:18:17.797Z,86.10
2022-11-14T08:19:16.684Z,86.38
2022-11-14T08:20:13.187Z,86.79
2022-11-14T08:21:09.639Z,86.19
2022-11-14T08:22:07.016Z,86.26
2022-11-14T08:23:04.575Z,86.26
2022-11-14T08:24:01.084Z,86.54
2022-11-14T08:24:57.909Z,87.18
2022-11-14T08:25:54.418Z,87.33
2022-11-14T08:26:50.925Z,87.75
2022-11-14T08:27:47.384Z,87.21
2022-11-14T08:28:43.824Z,87.95
2022-11-14T08:29:40.249Z,87.58
2022-11-14T08:30:36.824Z,86.52
2022-11-14T08:31:33.306Z,87.25
2022-11-14T08:32:29.788Z,86.14
2022-11-14T08:33:26.204Z,85.09
2022-11-14T08:34:23.694Z,84.73
2022-11-14T08:35:20.378Z,84.55
2022-11-14T08:36:16.875Z,85.10
2022-11-14T08:37:13.399Z,85.63
2022-11-14T08:38:09.914Z,86.38
2022-11-14T08:39:06.365Z,86.22
2022-11-14T08:40:02.921Z,85.53
2022-11-14T08:41:03.094Z,84.65
2022-11-14T08:41:59.565Z,83.87
2022-11-14T08:43:00.375Z,84.03
2022-11-14T08:43:56.865Z,83.53
2022-11-14T08:44:53.284Z,84.00
2022-11-14T08:45:49.714Z,84.81
2022-11-14T08:46:46.149Z,85.80
2022-11-14T08:47:42.591Z,86.25
2022-11-14T08:48:39.007Z,85.61
2022-11-14T08:49:35.460Z,84.76
2022-11-14T08:50:32.446Z,83.40
2022-11-14T08:51:28.870Z,84.52
2022-11-14T08:52:28.365Z,85.51
2022-11-14T08:53:24.917Z,85.15
2022-11-14T08:54:21.523Z,85.69
2022-11-14T08:55:18.401Z,86.21
2022-11-14T08:56:14.921Z,85.80
2022-11-14T08:57:15.217Z,84.18
2022-11-14T08:58:11.768Z,84.20
2022-11-14T08:59:08.221Z,84.16
2022-11-14T09:00:04.924Z,83.90
2022-11-14T09:01:06.034Z,84.31
2022-11-14T09:02:02.588Z,84.24
2022-11-14T09:02:59.123Z,84.59
2022-11-14T09:03:59.832Z,85.56
2022-11-14T09:04:56.745Z,85.28
2022-11-14T09:05:53.297Z,85.31
2022-11-14T09:06:49.838Z,85.31
2022-11-14T09:07:46.338Z,84.51
2022-11-14T09:08:42.809Z,83.46
2022-11-14T09:09:39.659Z,83.29
2022-11-14T09:10:37.299Z,84.00
2022-11-14T09:11:34.642Z,84.65
2022-11-14T09:12:31.153Z,84.91
2022-11-14T09:13:28.222Z,85.69
2022-11-14T09:14:24.855Z,84.95
2022-11-14T09:15:21.344Z,82.50
2022-11-14T09:16:17.845Z,82.06
2022-11-14T09:17:14.372Z,82.18
2022-11-14T09:18:11.538Z,82.91
2022-11-14T09:19:08.055Z,82.93
2022-11-14T09:20:04.678Z,83.50
2022-11-14T09:21:02.079Z,82.34
2022-11-14T09:21:58.582Z,82.73
2022-11-14T09:22:57.801Z,82.38
2022-11-14T09:23:58.836Z,83.87
2022-11-14T09:24:57.053Z,84.97
2022-11-14T09:25:54.887Z,85.11
2022-11-14T09:26:56.603Z,85.52
2022-11-14T09:27:53.743Z,85.11
2022-11-14T09:28:50.267Z,84.39
2022-11-14T09:29:46.942Z,83.25
2022-11-14T09:30:43.392Z,83.14
2022-11-14T09:31:39.938Z,83.48
2022-11-14T09:32:36.388Z,83.75
2022-11-14T09:33:33.215Z,84.50
2022-11-14T09:34:29.661Z,84.42
2022-11-14T09:35:26.127Z,84.17
2022-11-14T09:36:23.922Z,83.16
2022-11-14T09:37:20.408Z,83.74
2022-11-14T09:38:16.922Z,84.47
2022-11-14T09:39:13.570Z,84.66
2022-11-14T09:40:12.718Z,83.93
2022-11-14T09:41:09.330Z,83.18
2022-11-14T09:42:24.385Z,82.78
2022-11-14T09:43:34.928Z,84.62
2022-11-14T09:44:46.546Z,86.53
2022-11-14T09:45:48.092Z,87.45
2022-11-14T09:46:47.184Z,86.75
2022-11-14T09:47:45.088Z,86.36
2022-11-14T09:48:41.599Z,84.97
2022-11-14T09:49:45.640Z,84.80
2022-11-14T09:50:48.162Z,84.01
2022-11-14T09:51:47.965Z,84.21
2022-11-14T09:52:49.676Z,83.03
2022-11-14T09:53:55.706Z,82.00
2022-11-14T09:54:54.767Z,81.79
2022-11-14T09:55:52.090Z,80.80
2022-11-14T09:56:48.581Z,82.24
2022-11-14T09:57:45.767Z,82.77
2022-11-14T09:58:42.977Z,83.20
2022-11-14T09:59:39.519Z,82.67
2022-11-14T10:00:45.077Z,82.20
2022-11-14T10:01:56.774Z,80.58
2022-11-14T10:03:11.883Z,81.94
2022-11-14T10:04:23.559Z,81.71
2022-11-14T10:05:23.928Z,82.29
2022-11-14T10:06:38.893Z,82.16
2022-11-14T10:07:54.083Z,81.73
2022-11-14T10:09:09.606Z,81.85
2022-11-14T10:10:24.863Z,81.63
2022-11-14T10:11:32.123Z,82.33
2022-11-14T10:12:57.859Z,81.72
2022-11-14T10:14:13.196Z,81.47
2022-11-14T10:15:33.579Z,80.30
2022-11-14T10:16:46.798Z,82.46
2022-11-14T10:18:03.514Z,83.30
2022-11-14T10:19:12.053Z,81.34
2022-11-14T10:20:24.178Z,81.67
2022-11-14T10:21:23.492Z,83.40
2022-11-14T10:22:38.440Z,84.21
2022-11-14T10:23:37.883Z,83.36
2022-11-14T10:24:34.325Z,82.50
2022-11-14T10:25:40.931Z,82.40
2022-11-14T10:26:49.915Z,81.57
2022-11-14T10:27:58.461Z,80.92
2022-11-14T10:29:05.249Z,81.11
2022-11-14T10:30:08.611Z,80.33
2022-11-14T10:31:23.812Z,79.66
2022-11-14T10:32:20.266Z,79.82
2022-11-14T10:33:38.997Z,79.36
2022-11-14T10:34:41.850Z,78.17
2022-11-14T10:35:38.289Z,78.56
2022-11-14T10:36:43.818Z,77.76
2022-11-14T10:38:00.578Z,78.76
2022-11-14T10:39:20.493Z,79.95
2022-11-14T10:40:22.577Z,80.45
2022-11-14T10:41:41.743Z,80.45
2022-11-14T10:42:37.955Z,80.53
2022-11-14T10:43:37.449Z,80.56
2022-11-14T10:44:36.984Z,79.55
2022-11-14T10:45:39.145Z,79.58
2022-11-14T10:46:41.815Z,78.05
2022-11-14T10:47:40.861Z,76.49
2022-11-14T10:48:42.063Z,75.91
2022-11-14T10:49:39.056Z,76.28
2022-11-14T10:50:41.636Z,75.93
2022-11-14T10:51:41.834Z,77.71
2022-11-14T10:52:39.599Z,77.45
2022-11-14T10:53:36.101Z,78.14
2022-11-14T10:54:44.670Z,78.75
2022-11-14T10:56:03.075Z,79.49
2022-11-14T10:56:57.598Z,76.90
2022-11-14T10:57:54.035Z,76.49
2022-11-14T10:58:50.899Z,74.91
2022-11-14T10:59:47.593Z,74.65
2022-11-14T11:00:44.165Z,73.82
2022-11-14T11:01:45.131Z,75.31
2022-11-14T11:03:07.718Z,77.39
2022-11-14T11:04:22.576Z,76.23
2022-11-14T11:05:20.280Z,75.00
2022-11-14T11:06:26.678Z,75.41
2022-11-14T11:07:44.880Z,76.58
2022-11-14T11:09:00.954Z,77.78
2022-11-14T11:10:19.509Z,78.04
2022-11-14T11:11:32.150Z,76.54
2022-11-14T11:12:43.792Z,75.05
2022-11-14T11:13:47.704Z,75.72
2022-11-14T11:14:45.652Z,74.22
2022-11-14T11:15:42.911Z,74.58
2022-11-14T11:16:39.341Z,77.25
2022-11-14T11:17:41.789Z,76.72
2022-11-14T11:18:39.552Z,75.61
2022-11-14T11:19:36.048Z,76.27
2022-11-14T11:20:32.657Z,76.99
2022-11-14T11:21:46.088Z,77.05
2022-11-14T11:22:43.520Z,76.62
2022-11-14T11:23:53.342Z,76.64
2022-11-14T11:24:49.784Z,76.85
2022-11-14T11:25:46.280Z,76.19
2022-11-14T11:26:42.776Z,76.44
2022-11-14T11:27:39.255Z,76.18
2022-11-14T11:28:36.183Z,75.24
2022-11-14T11:29:32.608Z,75.50
2022-11-14T11:30:29.081Z,75.03
2022-11-14T11:31:25.546Z,74.68
2022-11-14T11:32:29.260Z,73.94
2022-11-14T11:33:27.063Z,74.49
2022-11-14T11:34:25.486Z,75.06
2022-11-14T11:35:22.504Z,76.03
2022-11-14T11:36:20.696Z,75.71
2022-11-14T11:37:32.332Z,74.56
2022-11-14T11:38:31.043Z,74.69
2022-11-14T11:39:33.288Z,75.23
2022-11-14T11:40:30.195Z,75.06
2022-11-14T11:44:15.555Z,70.71
2022-11-14T11:45:17.344Z,70.72
2022-11-14T11:46:23.072Z,71.48
2022-11-14T11:47:20.274Z,72.16
2022-11-14T11:48:18.726Z,71.59
2022-11-14T11:49:30.401Z,71.74
2022-11-14T11:50:29.097Z,71.79
2022-11-14T11:51:27.005Z,71.30
2022-11-14T11:52:30.453Z,71.85
2022-11-14T11:53:34.632Z,71.36
2022-11-14T11:54:38.728Z,71.22
2022-11-14T11:55:46.269Z,70.62
2022-11-14T11:56:44.190Z,70.70
2022-11-14T11:57:45.365Z,70.12
2022-11-14T11:58:44.902Z,69.97
2022-11-14T11:59:42.879Z,69.51
2022-11-14T12:00:39.372Z,68.62
2022-11-14T12:01:35.864Z,68.77
2022-11-14T12:02:32.518Z,69.15
2022-11-14T12:03:29.148Z,69.85
2022-11-14T12:04:25.686Z,69.95
2022-11-14T12:05:41.231Z,69.79
2022-11-14T12:06:50.717Z,68.12
2022-11-14T12:07:50.196Z,67.48
2022-11-14T12:08:55.855Z,66.84
2022-11-14T12:10:10.864Z,67.31
2022-11-14T12:11:12.344Z,67.71
2022-11-14T12:12:16.587Z,67.45
2022-11-14T12:13:16.023Z,66.80
2022-11-14T12:14:31.410Z,67.66
2022-11-14T12:15:46.984Z,66.79
2022-11-14T12:16:49.297Z,66.90
2022-11-14T12:18:00.093Z,68.26
2022-11-14T12:19:15.133Z,67.75
2022-11-14T12:20:29.604Z,67.10
2022-11-14T12:21:43.956Z,67.24
2022-11-14T12:22:40.464Z,67.62
2022-11-14T12:23:39.775Z,67.93
2022-11-14T12:24:54.670Z,67.81
2022-11-14T12:26:09.973Z,66.71
2022-11-14T12:27:22.046Z,67.39
2022-11-14T12:28:37.123Z,67.31
2022-11-14T12:29:48.923Z,66.97
2022-11-14T12:30:51.138Z,66.85
2022-11-14T12:31:47.953Z,66.55
2022-11-14T12:33:04.723Z,67.24
2022-11-14T12:34:03.850Z,66.29
2022-11-14T12:35:03.303Z,66.18
2022-11-14T12:36:01.605Z,65.53
2022-11-14T12:36:58.512Z,65.79
2022-11-14T12:37:56.590Z,66.32